createdAt,value
2022-08-30T00:02:21.045Z,94.14
2022-08-30T00:04:49.187Z,94.38
2022-08-30T00:07:17.196Z,94.65
2022-08-30T00:09:45.031Z,94.95
2022-08-30T00:12:12.950Z,95.24
2022-08-30T00:14:41.077Z,95.44
2022-08-30T00:17:08.809Z,95.78
2022-08-30T00:19:37.289Z,96.11
2022-08-30T00:22:07.225Z,96.37
2022-08-30T00:24:35.247Z,96.77
2022-08-30T00:27:03.177Z,97.04
2022-08-30T00:29:31.161Z,97.30
2022-08-30T00:31:58.868Z,97.57
2022-08-30T00:34:26.901Z,97.61
2022-08-30T00:36:54.706Z,97.75
2022-08-30T00:39:22.438Z,96.50
2022-08-30T00:41:50.437Z,95.74
2022-08-30T00:44:18.694Z,96.11
2022-08-30T00:46:46.462Z,96.52
2022-08-30T00:49:15.103Z,96.79
2022-08-30T00:51:43.514Z,96.97
2022-08-30T00:54:12.271Z,97.33
2022-08-30T00:56:40.393Z,97.61
2022-08-30T00:59:10.370Z,98.08
2022-08-30T01:01:38.655Z,98.44
2022-08-30T01:04:08.920Z,98.83
2022-08-30T01:06:39.495Z,99.08
2022-08-30T01:09:09.132Z,99.17
2022-08-30T01:11:38.156Z,99.64
2022-08-30T01:14:06.881Z,100.00
2022-08-30T01:16:36.130Z,100.00
2022-08-30T01:19:06.870Z,100.00
2022-08-30T01:21:34.971Z,100.00
2022-08-30T01:24:05.059Z,100.00
2022-08-30T01:26:35.040Z,100.00
2022-08-30T01:29:10.449Z,100.00
2022-08-30T01:31:38.426Z,100.00
2022-08-30T01:34:07.815Z,100.00
2022-08-30T01:36:37.822Z,100.00
2022-08-30T01:39:15.467Z,100.00
2022-08-30T01:41:43.720Z,100.00
2022-08-30T01:44:13.118Z,100.00
2022-08-30T01:46:46.252Z,100.00
2022-08-30T01:49:17.490Z,100.00
2022-08-30T01:51:51.009Z,100.00
2022-08-30T01:54:36.833Z,100.00
2022-08-30T01:57:09.928Z,100.00
2022-08-30T01:59:39.044Z,100.00
2022-08-30T02:02:08.420Z,100.00
2022-08-30T02:04:36.862Z,100.00
2022-08-30T02:07:05.683Z,100.00
2022-08-30T02:09:33.844Z,100.00
2022-08-30T02:12:01.666Z,100.00
2022-08-30T02:14:29.415Z,100.00
2022-08-30T02:16:57.413Z,100.00
2022-08-30T02:19:25.275Z,100.00
2022-08-30T02:21:53.022Z,100.00
2022-08-30T02:24:21.179Z,100.00
2022-08-30T02:26:49.485Z,100.00
2022-08-30T02:29:17.485Z,100.00
2022-08-30T02:31:45.909Z,100.00
2022-08-30T02:34:14.070Z,100.00
2022-08-30T02:36:42.343Z,100.00
2022-08-30T02:39:12.756Z,100.00
2022-08-30T02:41:41.725Z,100.00
2022-08-30T02:44:10.782Z,100.00
2022-08-30T02:46:38.916Z,100.00
2022-08-30T02:49:32.176Z,100.00
2022-08-30T02:51:56.730Z,100.00
2022-08-30T02:54:24.782Z,100.00
2022-08-30T02:56:52.682Z,100.00
2022-08-30T02:59:21.018Z,100.00
2022-08-30T03:01:49.152Z,100.00
2022-08-30T03:04:16.998Z,100.00
2022-08-30T03:06:45.732Z,100.00
2022-08-30T03:09:13.601Z,100.00
2022-08-30T03:11:42.722Z,100.00
2022-08-30T03:14:10.606Z,100.00
2022-08-30T03:16:38.383Z,100.00
2022-08-30T03:19:06.115Z,100.00
2022-08-30T03:21:36.261Z,100.00
2022-08-30T03:24:04.264Z,100.00
2022-08-30T03:26:31.946Z,100.00
2022-08-30T03:28:59.985Z,100.00
2022-08-30T03:31:27.704Z,100.00
2022-08-30T03:33:55.467Z,100.00
2022-08-30T03:36:23.458Z,100.00
2022-08-30T03:38:51.234Z,100.00
2022-08-30T03:41:19.076Z,100.00
2022-08-30T03:43:47.493Z,100.00
2022-08-30T03:46:16.049Z,100.00
2022-08-30T03:48:44.136Z,100.00
2022-08-30T03:51:12.018Z,100.00
2022-08-30T03:53:39.747Z,100.00
2022-08-30T03:56:07.584Z,100.00
2022-08-30T03:58:36.080Z,100.00
2022-08-30T04:01:04.063Z,100.00
2022-08-30T04:03:31.809Z,100.00
2022-08-30T04:06:00.656Z,100.00
2022-08-30T04:08:28.909Z,100.00
2022-08-30T04:10:56.732Z,100.00
2022-08-30T04:13:25.282Z,100.00
2022-08-30T04:15:53.110Z,100.00
2022-08-30T04:18:21.121Z,100.00
2022-08-30T04:20:51.276Z,100.00
2022-08-30T04:23:19.585Z,100.00
2022-08-30T04:25:47.409Z,100.00
2022-08-30T04:28:15.638Z,100.00
2022-08-30T04:30:44.541Z,100.00
2022-08-30T04:33:13.771Z,100.00
2022-08-30T04:35:46.604Z,100.00
2022-08-30T04:38:15.239Z,100.00
2022-08-30T04:40:45.352Z,100.00
2022-08-30T04:43:13.352Z,100.00
2022-08-30T04:45:42.800Z,100.00
2022-08-30T04:48:10.733Z,100.00
2022-08-30T04:50:38.545Z,100.00
2022-08-30T04:53:13.846Z,100.00
2022-08-30T04:55:43.426Z,100.00
2022-08-30T04:58:12.058Z,100.00
2022-08-30T05:00:43.005Z,99.48
2022-08-30T05:03:10.889Z,98.13
2022-08-30T05:05:41.885Z,97.28
2022-08-30T05:08:12.758Z,96.70
2022-08-30T05:10:46.129Z,95.93
2022-08-30T05:13:15.756Z,94.94
2022-08-30T05:15:44.436Z,93.99
2022-08-30T05:18:14.194Z,93.50
2022-08-30T05:20:43.539Z,93.18
2022-08-30T05:23:11.386Z,92.91
2022-08-30T05:25:41.375Z,92.51
2022-08-30T05:28:10.235Z,91.53
2022-08-30T05:30:38.477Z,90.74
2022-08-30T05:33:06.746Z,89.99
2022-08-30T05:35:34.844Z,89.60
2022-08-30T05:38:02.639Z,88.76
2022-08-30T05:40:30.653Z,87.88
2022-08-30T05:42:59.472Z,87.07
2022-08-30T05:45:27.221Z,85.58
2022-08-30T05:47:54.977Z,84.58
2022-08-30T05:50:23.384Z,84.47
2022-08-30T05:52:51.108Z,83.98
2022-08-30T05:55:21.927Z,82.71
2022-08-30T05:57:49.871Z,81.81
2022-08-30T06:00:19.065Z,80.85
2022-08-30T06:02:46.969Z,79.55
2022-08-30T06:05:15.061Z,78.64
2022-08-30T06:07:44.081Z,77.09
2022-08-30T06:10:12.570Z,76.65
2022-08-30T06:12:40.778Z,75.83
2022-08-30T06:15:09.363Z,74.81
2022-08-30T06:17:39.609Z,73.33
2022-08-30T06:20:09.714Z,71.96
2022-08-30T06:22:38.982Z,71.60
2022-08-30T06:25:07.366Z,71.24
2022-08-30T06:27:35.272Z,70.72
2022-08-30T06:30:03.737Z,69.71
2022-08-30T06:32:31.668Z,69.30
2022-08-30T06:34:59.524Z,69.55
2022-08-30T06:37:29.403Z,69.59
2022-08-30T06:39:59.632Z,69.38
2022-08-30T06:42:32.202Z,68.71
2022-08-30T06:45:01.926Z,67.87
2022-08-30T06:47:30.630Z,66.85
2022-08-30T06:49:58.952Z,66.18
2022-08-30T06:52:26.757Z,65.88
2022-08-30T06:54:58.391Z,64.93
2022-08-30T06:57:27.084Z,64.09
2022-08-30T06:59:58.785Z,63.48
2022-08-30T07:02:27.019Z,62.58
2022-08-30T07:04:54.904Z,62.25
2022-08-30T07:07:23.276Z,62.03
2022-08-30T07:09:51.388Z,62.31
2022-08-30T07:12:19.130Z,63.04
2022-08-30T07:14:46.957Z,62.99
2022-08-30T07:17:34.841Z,62.13
2022-08-30T07:20:04.889Z,61.96
2022-08-30T07:22:35.766Z,62.04
2022-08-30T07:25:03.938Z,62.04
2022-08-30T07:27:31.911Z,62.53
2022-08-30T07:30:01.165Z,62.94
2022-08-30T07:32:29.107Z,63.46
2022-08-30T07:34:56.852Z,63.47
2022-08-30T07:37:25.179Z,63.93
2022-08-30T07:39:53.200Z,64.04
2022-08-30T07:42:21.067Z,64.61
2022-08-30T07:44:49.070Z,64.24
2022-08-30T07:47:16.919Z,64.15
2022-08-30T07:49:44.693Z,63.19
2022-08-30T07:52:12.711Z,61.90
2022-08-30T07:54:40.527Z,60.61
2022-08-30T07:57:08.521Z,60.30
2022-08-30T07:59:36.555Z,60.91
2022-08-30T08:02:04.655Z,61.32
2022-08-30T08:04:33.267Z,62.33
2022-08-30T08:07:01.381Z,62.49
2022-08-30T08:09:29.287Z,62.21
2022-08-30T08:11:57.562Z,61.48
2022-08-30T08:14:25.951Z,61.34
2022-08-30T08:16:53.846Z,60.96
2022-08-30T08:19:21.781Z,60.86
2022-08-30T08:21:55.698Z,60.87
2022-08-30T08:24:37.206Z,59.27
2022-08-30T08:27:05.304Z,58.27
2022-08-30T08:29:33.139Z,57.58
2022-08-30T08:32:01.287Z,57.56
2022-08-30T08:34:29.203Z,57.88
2022-08-30T08:36:56.993Z,57.27
2022-08-30T08:39:24.889Z,56.56
2022-08-30T08:42:31.964Z,55.80
2022-08-30T08:45:12.957Z,55.64
2022-08-30T08:47:59.229Z,55.72
2022-08-30T08:50:30.159Z,56.03
2022-08-30T08:53:45.479Z,56.09
2022-08-30T08:56:16.876Z,56.77
2022-08-30T08:58:48.973Z,57.25
2022-08-30T09:01:20.483Z,57.48
2022-08-30T09:03:49.450Z,57.10
2022-08-30T09:06:28.946Z,56.33
2022-08-30T09:08:57.149Z,56.20
2022-08-30T09:11:28.593Z,56.30
2022-08-30T09:13:56.480Z,56.31
2022-08-30T09:16:56.816Z,56.51
2022-08-30T09:19:58.894Z,56.50
2022-08-30T09:22:38.006Z,55.74
2022-08-30T09:25:17.287Z,55.41
2022-08-30T09:27:47.875Z,54.54
2022-08-30T09:30:30.365Z,54.56
2022-08-30T09:33:01.750Z,53.90
2022-08-30T09:35:37.507Z,53.91
2022-08-30T09:38:08.437Z,54.41
2022-08-30T09:40:42.619Z,54.81
2022-08-30T09:43:16.352Z,55.00
2022-08-30T09:45:49.803Z,55.22
2022-08-30T09:48:34.391Z,54.31
2022-08-30T09:51:12.990Z,53.29
2022-08-30T09:54:07.261Z,52.87
2022-08-30T09:56:53.496Z,51.99
2022-08-30T09:59:42.497Z,52.00
2022-08-30T10:02:19.067Z,52.58
2022-08-30T10:04:46.966Z,52.85
2022-08-30T10:07:21.362Z,53.54
2022-08-30T10:10:29.044Z,53.71
2022-08-30T10:13:29.626Z,53.50
2022-08-30T10:16:22.489Z,53.11
2022-08-30T10:19:02.293Z,52.73
2022-08-30T10:21:50.129Z,51.67
2022-08-30T10:24:24.594Z,51.08
2022-08-30T10:26:55.466Z,50.86
2022-08-30T10:29:30.478Z,51.17
2022-08-30T10:32:51.381Z,51.22
2022-08-30T10:35:29.064Z,50.79
2022-08-30T10:38:10.568Z,50.61
2022-08-30T10:41:02.292Z,51.38
2022-08-30T10:43:52.675Z,52.31
2022-08-30T10:46:50.607Z,53.26
2022-08-30T10:49:22.491Z,54.42
2022-08-30T10:52:11.822Z,55.35
2022-08-30T10:54:47.204Z,56.24
2022-08-30T10:57:14.920Z,56.38
2022-08-30T10:59:50.534Z,56.75
2022-08-30T11:02:29.892Z,57.30
2022-08-30T11:05:12.376Z,57.26
2022-08-30T11:08:03.073Z,56.83
2022-08-30T11:10:42.462Z,55.78
2022-08-30T11:13:26.409Z,55.04
2022-08-30T11:16:15.419Z,54.73
2022-08-30T11:18:52.139Z,54.36
2022-08-30T11:21:23.477Z,54.52
2022-08-30T11:24:10.861Z,54.78
2022-08-30T11:27:00.126Z,54.83
2022-08-30T11:29:30.834Z,55.03
2022-08-30T11:32:17.324Z,54.27
2022-08-30T11:34:48.002Z,53.92
2022-08-30T11:37:35.960Z,53.56
2022-08-30T11:40:13.317Z,53.29
2022-08-30T11:42:49.318Z,53.17
2022-08-30T11:45:24.759Z,53.57
2022-08-30T11:48:00.842Z,53.47
2022-08-30T11:50:53.977Z,52.87
2022-08-30T11:53:38.207Z,52.82
2022-08-30T11:56:35.054Z,52.32
2022-08-30T11:59:26.767Z,51.77
2022-08-30T12:01:55.822Z,50.57
2022-08-30T12:04:43.155Z,50.46
2022-08-30T12:07:12.660Z,50.02
2022-08-30T12:09:46.794Z,49.71
2022-08-30T12:12:26.768Z,49.21
2022-08-30T12:14:57.616Z,49.51
2022-08-30T12:17:47.017Z,48.85
2022-08-30T12:20:26.021Z,48.45
2022-08-30T12:22:55.661Z,48.34
2022-08-30T12:25:34.085Z,48.32
2022-08-30T12:28:12.083Z,48.04
2022-08-30T12:30:41.054Z,47.72
2022-08-30T12:33:12.711Z,47.88
2022-08-30T12:35:43.919Z,48.18
2022-08-30T12:38:27.658Z,47.95
2022-08-30T12:41:00.350Z,48.00
2022-08-30T12:43:40.195Z,47.65
2022-08-30T12:46:15.339Z,47.43
2022-08-30T12:48:45.063Z,47.21
2022-08-30T12:51:38.956Z,46.73
2022-08-30T12:54:16.097Z,45.91
2022-08-30T12:57:19.313Z,46.02
2022-08-30T12:59:59.325Z,46.14
2022-08-30T13:02:53.131Z,46.70
2022-08-30T13:05:41.683Z,46.76
2022-08-30T13:08:18.792Z,46.53
2022-08-30T13:11:01.538Z,46.66
2022-08-30T13:13:51.956Z,46.63
2022-08-30T13:16:35.437Z,46.79
2022-08-30T13:19:33.612Z,46.68
2022-08-30T13:22:02.322Z,46.43
2022-08-30T13:24:30.933Z,46.94
2022-08-30T13:27:11.853Z,47.24
2022-08-30T13:29:40.546Z,47.60
2022-08-30T13:32:10.109Z,48.14
2022-08-30T13:34:38.893Z,48.66
2022-08-30T13:37:44.297Z,48.79
2022-08-30T13:39:55.749Z,49.36
2022-08-30T13:42:39.055Z,49.73
2022-08-30T13:45:40.975Z,49.47
2022-08-30T13:47:56.007Z,49.69
2022-08-30T13:50:23.956Z,49.52
2022-08-30T13:52:55.162Z,49.53
2022-08-30T13:55:23.077Z,49.04
2022-08-30T13:57:55.201Z,49.64
2022-08-30T14:00:25.357Z,50.12
2022-08-30T14:02:57.544Z,50.30
2022-08-30T14:05:48.700Z,50.32
2022-08-30T14:11:18.394Z,50.15
2022-08-30T14:16:37.132Z,50.72
2022-08-30T14:19:06.333Z,51.29
2022-08-30T14:21:36.257Z,51.63
2022-08-30T14:24:06.552Z,51.76
2022-08-30T14:26:40.720Z,52.01
2022-08-30T14:29:11.209Z,52.18
2022-08-30T14:31:40.350Z,51.63
2022-08-30T14:34:10.951Z,51.71
2022-08-30T14:36:42.541Z,51.67
2022-08-30T14:39:14.725Z,52.07
2022-08-30T14:41:45.889Z,51.94
2022-08-30T14:44:15.658Z,51.49
2022-08-30T14:46:44.453Z,50.75
2022-08-30T14:49:13.918Z,50.33
2022-08-30T14:51:42.582Z,50.27
2022-08-30T14:54:10.885Z,50.46
2022-08-30T14:56:45.102Z,50.43
2022-08-30T14:59:13.426Z,50.08
2022-08-30T15:01:42.105Z,50.17
2022-08-30T15:04:10.813Z,50.68
2022-08-30T15:06:40.553Z,51.23
2022-08-30T15:09:11.193Z,51.93
2022-08-30T15:11:39.979Z,54.26
2022-08-30T15:14:08.888Z,55.73
2022-08-30T15:16:39.774Z,56.95
2022-08-30T15:19:10.681Z,57.33
2022-08-30T15:21:46.471Z,57.93
2022-08-30T15:24:19.833Z,59.18
2022-08-30T15:26:55.484Z,59.48
2022-08-30T15:29:24.526Z,59.81
2022-08-30T15:31:52.649Z,60.12
2022-08-30T15:34:28.120Z,59.27
2022-08-30T15:36:57.265Z,58.72
2022-08-30T15:39:25.973Z,58.39
2022-08-30T15:41:58.429Z,58.96
2022-08-30T15:44:32.524Z,59.16
2022-08-30T15:47:03.966Z,59.05
2022-08-30T15:49:32.275Z,59.44
2022-08-30T15:52:02.445Z,59.45
2022-08-30T15:54:30.962Z,59.99
2022-08-30T15:56:59.576Z,60.19
2022-08-30T15:59:29.367Z,60.47
2022-08-30T16:01:58.115Z,60.48
2022-08-30T16:04:26.237Z,60.61
2022-08-30T16:06:54.441Z,60.83
2022-08-30T16:09:23.154Z,60.86
2022-08-30T16:11:51.188Z,60.96
2022-08-30T16:14:19.074Z,61.26
2022-08-30T16:16:46.793Z,61.51
2022-08-30T16:19:14.751Z,61.87
2022-08-30T16:21:44.076Z,62.04
2022-08-30T16:24:14.086Z,61.98
2022-08-30T16:26:43.700Z,62.18
2022-08-30T16:29:13.204Z,62.53
2022-08-30T16:31:44.296Z,62.42
2022-08-30T16:34:15.088Z,62.75
2022-08-30T16:36:43.740Z,63.13
2022-08-30T16:39:13.554Z,63.31
2022-08-30T16:41:44.344Z,63.52
2022-08-30T16:44:13.573Z,63.87
2022-08-30T16:46:44.038Z,64.21
2022-08-30T16:49:23.178Z,64.40
2022-08-30T16:51:53.492Z,64.79
2022-08-30T16:54:21.297Z,65.21
2022-08-30T16:56:49.160Z,65.56
2022-08-30T16:59:17.743Z,65.92
2022-08-30T17:01:48.134Z,65.72
2022-08-30T17:04:19.298Z,66.17
2022-08-30T17:06:49.690Z,66.75
2022-08-30T17:09:19.183Z,67.15
2022-08-30T17:11:47.846Z,66.83
2022-08-30T17:14:21.550Z,67.18
2022-08-30T17:16:56.263Z,67.39
2022-08-30T17:19:27.257Z,67.96
2022-08-30T17:21:58.074Z,68.03
2022-08-30T17:24:27.170Z,68.07
2022-08-30T17:26:55.413Z,68.18
2022-08-30T17:29:23.310Z,68.48
2022-08-30T17:31:51.709Z,68.99
2022-08-30T17:34:21.995Z,68.94
2022-08-30T17:36:51.497Z,68.93
2022-08-30T17:39:19.676Z,69.09
2022-08-30T17:41:50.517Z,69.12
2022-08-30T17:44:29.032Z,69.37
2022-08-30T17:46:59.561Z,69.35
2022-08-30T17:49:28.832Z,69.28
2022-08-30T17:51:57.995Z,69.44
2022-08-30T17:54:28.131Z,69.85
2022-08-30T17:56:57.441Z,70.03
2022-08-30T17:59:26.460Z,69.90
2022-08-30T18:01:57.441Z,70.36
2022-08-30T18:04:26.955Z,70.79
2022-08-30T18:06:56.175Z,70.81
2022-08-30T18:09:24.585Z,71.04
2022-08-30T18:11:56.303Z,71.28
2022-08-30T18:14:25.222Z,71.51
2022-08-30T18:16:54.873Z,71.40
2022-08-30T18:19:24.316Z,71.25
2022-08-30T18:21:52.706Z,71.25
2022-08-30T18:24:21.990Z,71.55
2022-08-30T18:26:50.422Z,71.42
2022-08-30T18:29:26.052Z,71.30
2022-08-30T18:32:03.432Z,71.19
2022-08-30T18:34:31.778Z,71.46
2022-08-30T18:37:01.127Z,71.60
2022-08-30T18:42:17.636Z,71.40
2022-08-30T18:44:45.706Z,71.48
2022-08-30T18:47:13.579Z,71.23
2022-08-30T18:49:42.694Z,71.16
2022-08-30T18:52:11.481Z,71.45
2022-08-30T18:54:51.701Z,71.89
2022-08-30T18:57:22.143Z,72.14
2022-08-30T18:59:50.360Z,72.39
2022-08-30T19:02:19.052Z,72.31
2022-08-30T19:04:49.219Z,72.53
2022-08-30T19:07:19.524Z,72.96
2022-08-30T19:09:47.465Z,73.23
2022-08-30T19:12:16.210Z,73.13
2022-08-30T19:14:43.972Z,73.47
2022-08-30T19:17:12.633Z,73.34
2022-08-30T19:19:47.235Z,73.24
2022-08-30T19:22:19.048Z,73.32
2022-08-30T19:24:49.733Z,73.61
2022-08-30T19:30:29.931Z,73.63
2022-08-30T19:32:57.886Z,73.88
2022-08-30T19:35:26.619Z,73.98
2022-08-30T19:37:59.508Z,74.34
2022-08-30T19:40:28.209Z,75.04
2022-08-30T19:42:56.767Z,75.36
2022-08-30T19:45:25.268Z,75.96
2022-08-30T19:47:53.681Z,76.10
2022-08-30T19:50:22.170Z,76.34
2022-08-30T19:52:54.144Z,76.47
2022-08-30T19:55:30.166Z,76.84
2022-08-30T19:57:59.321Z,77.30
2022-08-30T20:00:27.304Z,77.39
2022-08-30T20:03:01.450Z,77.78
2022-08-30T20:05:31.834Z,77.89
2022-08-30T20:08:00.644Z,78.23
2022-08-30T20:10:28.548Z,77.98
2022-08-30T20:12:56.807Z,78.55
2022-08-30T20:15:25.766Z,78.80
2022-08-30T20:18:05.097Z,79.06
2022-08-30T20:20:33.740Z,79.29
2022-08-30T20:23:05.584Z,79.55
2022-08-30T20:24:28.313Z,71.56
2022-08-30T20:25:34.447Z,79.35
2022-08-30T20:28:03.369Z,79.45
2022-08-30T20:30:32.306Z,79.85
2022-08-30T20:33:03.712Z,80.12
2022-08-30T20:35:34.280Z,80.23
2022-08-30T20:38:06.482Z,79.99
2022-08-30T20:40:37.112Z,80.07
2022-08-30T20:43:06.349Z,80.34
2022-08-30T20:45:34.685Z,80.46
2022-08-30T20:48:03.261Z,80.44
2022-08-30T20:50:31.505Z,80.83
2022-08-30T20:52:59.439Z,80.73
2022-08-30T20:55:27.203Z,80.71
2022-08-30T20:57:55.116Z,81.04
2022-08-30T21:00:23.864Z,80.99
2022-08-30T21:02:54.619Z,81.16
2022-08-30T21:05:22.745Z,81.49
2022-08-30T21:07:50.550Z,81.57
2022-08-30T21:10:22.712Z,81.86
2022-08-30T21:12:51.703Z,82.22
2022-08-30T21:15:37.610Z,82.28
2022-08-30T21:18:06.552Z,82.13
2022-08-30T21:20:34.368Z,82.32
2022-08-30T21:23:02.373Z,82.42
2022-08-30T21:25:33.274Z,82.25
2022-08-30T21:28:01.374Z,82.48
2022-08-30T21:30:29.312Z,82.50
2022-08-30T21:33:00.102Z,82.68
2022-08-30T21:35:47.396Z,82.86
2022-08-30T21:38:16.582Z,82.76
2022-08-30T21:40:44.692Z,82.87
2022-08-30T21:43:12.757Z,82.85
2022-08-30T21:45:41.765Z,82.54
2022-08-30T21:48:11.584Z,82.71
2022-08-30T21:50:42.290Z,82.86
2022-08-30T21:53:10.810Z,82.76
2022-08-30T21:55:40.311Z,82.66
2022-08-30T21:58:11.813Z,82.69
2022-08-30T22:00:39.616Z,82.56
2022-08-30T22:03:07.375Z,82.13
2022-08-30T22:05:35.541Z,81.33
2022-08-30T22:08:03.504Z,81.24
2022-08-30T22:10:33.258Z,80.74
2022-08-30T22:13:01.613Z,80.67
2022-08-30T22:15:31.561Z,81.32
2022-08-30T22:18:00.950Z,81.74
2022-08-30T22:20:30.321Z,82.08
2022-08-30T22:22:58.602Z,82.17
2022-08-30T22:25:26.671Z,81.83
2022-08-30T22:27:54.625Z,82.00
2022-08-30T22:30:22.603Z,82.26
2022-08-30T22:32:51.479Z,82.67
2022-08-30T22:35:20.687Z,82.95
2022-08-30T22:37:53.493Z,83.23
2022-08-30T22:40:22.259Z,83.27
2022-08-30T22:42:50.063Z,83.13
2022-08-30T22:45:18.134Z,83.23
2022-08-30T22:47:46.275Z,82.47
2022-08-30T22:50:14.387Z,81.71
2022-08-30T22:52:42.214Z,81.61
2022-08-30T22:55:10.143Z,81.41
2022-08-30T22:57:39.138Z,81.15
2022-08-30T23:00:15.190Z,81.85
2022-08-30T23:02:47.036Z,82.14
2022-08-30T23:05:16.215Z,82.60
2022-08-30T23:07:44.506Z,82.84
2022-08-30T23:10:14.423Z,82.90
2022-08-30T23:12:43.075Z,82.87
2022-08-30T23:15:14.940Z,83.02
2022-08-30T23:17:42.879Z,83.46
2022-08-30T23:20:10.975Z,83.77
2022-08-30T23:22:38.919Z,84.43
2022-08-30T23:25:26.555Z,85.11
2022-08-30T23:28:19.100Z,85.66
2022-08-30T23:31:07.084Z,86.52
2022-08-30T23:33:53.692Z,87.34
2022-08-30T23:36:40.131Z,87.76
2022-08-30T23:39:26.793Z,88.48
2022-08-30T23:42:13.415Z,88.80
2022-08-30T23:45:00.220Z,89.79
2022-08-30T23:47:46.574Z,90.30
2022-08-30T23:50:33.021Z,90.80
2022-08-30T23:53:19.666Z,91.42
2022-08-30T23:56:06.568Z,91.98
2022-08-30T23:58:54.254Z,92.43
